Time;durP1;ratioP1;P1;durP2;ratioP2;P2;SDS_P1;SDS_P2;PMS_P1;PMS_P2;Temp;Humidity;BMP_temperature;BMP_pressure;BME280_temperature;BME280_humidity;BME280_pressure;Samples;Min_cycle;Max_cycle;Signal;HPM_P1;HPM_P2
2023/08/10 00:03:56;;;;;;;8.23;4.87;;;25.50;46.00;;;;;;4904529;29;20418;-82
2023/08/10 00:13:46;;;;;;;11.13;5.00;;;25.40;46.30;;;;;;5017081;28;20425;-82
2023/08/10 00:16:26;;;;;;;4.90;4.50;;;25.40;46.20;;;;;;5016708;28;20442;-81
2023/08/10 00:19:11;;;;;;;7.40;4.70;;;25.40;46.30;;;;;;5016894;28;20492;-82
2023/08/10 00:21:45;;;;;;;5.60;4.80;;;25.40;46.40;;;;;;5017242;28;20502;-82
2023/08/10 00:24:24;;;;;;;5.03;4.53;;;25.40;46.40;;;;;;5016300;28;20477;-81
2023/08/10 00:27:03;;;;;;;4.63;4.13;;;25.40;46.40;;;;;;5022601;28;20493;-83
2023/08/10 00:29:40;;;;;;;4.17;3.87;;;25.40;46.40;;;;;;5019584;28;20510;-82
2023/08/10 00:32:16;;;;;;;4.90;4.40;;;25.40;46.40;;;;;;5020754;28;20446;-84
2023/08/10 00:34:50;;;;;;;5.27;4.47;;;25.30;46.50;;;;;;5021464;28;20458;-84
2023/08/10 00:37:26;;;;;;;5.27;4.13;;;25.30;46.50;;;;;;5017847;28;20441;-83
2023/08/10 00:40:05;;;;;;;5.03;4.53;;;25.30;46.60;;;;;;5021762;28;20419;-83
2023/08/10 00:45:37;;;;;;;4.23;3.83;;;25.30;46.60;;;;;;5002063;28;20484;-83
2023/08/10 00:48:15;;;;;;;4.80;4.20;;;25.30;46.70;;;;;;5001076;28;20510;-83
2023/08/10 00:50:52;;;;;;;4.83;3.87;;;25.30;46.70;;;;;;4999980;28;20440;-83
2023/08/10 00:53:46;;;;;;;3.80;3.50;;;25.20;46.80;;;;;;5000633;28;20423;-83
2023/08/10 01:00:14;;;;;;;;;;;;;;;;;;;;;
2023/08/10 01:03:04;;;;;;;5.23;4.33;;;25.20;46.80;;;;;;4998494;28;20492;-83
2023/08/10 01:06:05;;;;;;;4.73;3.93;;;25.20;46.90;;;;;;4998176;28;20424;-83
2023/08/10 01:08:53;;;;;;;4.73;3.60;;;25.20;46.80;;;;;;4998329;28;20456;-83
2023/08/10 01:12:12;;;;;;;4.23;3.80;;;25.20;46.90;;;;;;4991189;28;20939;-83
2023/08/10 01:14:57;;;;;;;4.13;3.80;;;25.20;47.00;;;;;;4990270;28;20454;-83
2023/08/10 01:17:36;;;;;;;4.13;3.53;;;25.10;47.10;;;;;;4994692;28;20461;-83
2023/08/10 01:20:24;;;;;;;3.73;3.50;;;25.10;47.10;;;;;;4994704;28;20430;-83
2023/08/10 01:23:07;;;;;;;3.83;3.53;;;25.10;47.20;;;;;;4997303;28;20439;-83
2023/08/10 01:26:04;;;;;;;4.00;3.70;;;25.10;47.20;;;;;;5002863;28;20448;-83
2023/08/10 01:28:45;;;;;;;3.60;3.30;;;25.10;47.20;;;;;;5003982;28;20527;-82
2023/08/10 01:31:24;;;;;;;6.63;3.77;;;25.00;47.30;;;;;;5005180;28;20454;-84
2023/08/10 01:34:00;;;;;;;5.90;3.83;;;25.00;47.30;;;;;;5002527;28;20415;-83
2023/08/10 01:36:46;;;;;;;3.67;3.37;;;25.00;47.40;;;;;;5005205;28;20444;-83
2023/08/10 01:39:20;;;;;;;3.47;3.23;;;24.90;47.40;;;;;;5004333;28;20411;-83
2023/08/10 01:41:57;;;;;;;4.67;3.40;;;24.90;47.30;;;;;;5005162;28;20436;-83
2023/08/10 01:44:41;;;;;;;4.33;3.80;;;24.90;47.40;;;;;;4998310;28;20502;-84
2023/08/10 01:47:44;;;;;;;3.70;3.40;;;24.90;47.60;;;;;;5001285;28;20516;-84
2023/08/10 01:53:32;;;;;;;3.27;3.07;;;24.90;47.70;;;;;;4986799;28;20449;-83
2023/08/10 01:59:10;;;;;;;3.30;3.10;;;24.90;47.70;;;;;;4995058;28;20514;-83
2023/08/10 02:01:43;;;;;;;4.00;3.57;;;24.80;47.70;;;;;;5003756;28;20472;-83
2023/08/10 02:04:16;;;;;;;3.40;3.10;;;24.80;47.70;;;;;;5003931;28;20440;-82
2023/08/10 02:06:50;;;;;;;4.00;3.60;;;24.80;47.70;;;;;;5000664;28;20511;-82
2023/08/10 02:09:33;;;;;;;3.77;3.47;;;24.80;47.80;;;;;;5003654;28;20832;-83
2023/08/10 02:12:09;;;;;;;3.70;3.40;;;24.80;47.80;;;;;;5003234;28;20469;-83
2023/08/10 02:14:51;;;;;;;3.23;3.00;;;24.80;48.00;;;;;;5003310;28;20428;-83
2023/08/10 02:17:25;;;;;;;3.37;3.17;;;24.80;47.90;;;;;;5003685;28;20452;-83
2023/08/10 02:19:55;;;;;;;3.60;3.30;;;24.80;48.00;;;;;;5003335;28;20504;-83
2023/08/10 02:22:30;;;;;;;3.53;3.23;;;24.80;48.00;;;;;;5000964;28;20473;-83
2023/08/10 02:25:13;;;;;;;3.50;3.20;;;24.70;47.70;;;;;;5004008;28;20419;-83
2023/08/10 02:27:46;;;;;;;3.00;2.80;;;24.70;48.00;;;;;;5005085;28;20445;-83
2023/08/10 02:30:20;;;;;;;4.03;3.20;;;24.70;48.10;;;;;;5005389;28;20439;-83
2023/08/10 02:32:54;;;;;;;3.53;2.83;;;24.70;47.90;;;;;;5005997;28;20449;-83
2023/08/10 02:35:44;;;;;;;3.17;2.97;;;24.70;48.00;;;;;;5009398;28;20427;-82
2023/08/10 02:38:20;;;;;;;2.83;2.57;;;24.70;48.10;;;;;;5002858;28;20424;-83
2023/08/10 02:40:55;;;;;;;2.97;2.73;;;24.60;48.10;;;;;;4999460;28;20451;-83
2023/08/10 02:43:28;;;;;;;2.90;2.70;;;24.60;48.20;;;;;;5002376;28;20504;-83
2023/08/10 02:46:04;;;;;;;3.17;2.90;;;24.60;48.20;;;;;;5002676;28;20487;-83
2023/08/10 02:48:37;;;;;;;3.20;2.70;;;24.60;48.30;;;;;;5003287;28;20416;-83
2023/08/10 02:51:16;;;;;;;3.73;2.80;;;24.60;48.30;;;;;;5002640;28;20446;-82
2023/08/10 02:53:59;;;;;;;2.80;2.60;;;24.50;48.30;;;;;;4993957;28;20473;-83
2023/08/10 02:56:36;;;;;;;2.77;2.57;;;24.50;48.50;;;;;;4999708;28;20457;-83
2023/08/10 02:59:10;;;;;;;3.00;2.80;;;24.50;48.40;;;;;;5002459;28;20424;-83
2023/08/10 03:01:47;;;;;;;2.80;2.53;;;24.50;48.40;;;;;;4999782;28;20580;-83
2023/08/10 03:04:16;;;;;;;3.50;3.20;;;24.50;48.50;;;;;;5000841;28;20444;-83
2023/08/10 03:06:44;;;;;;;3.10;2.80;;;24.40;48.40;;;;;;4997514;28;20485;-83
2023/08/10 03:09:16;;;;;;;3.20;2.90;;;24.40;48.40;;;;;;5002081;28;20473;-83
2023/08/10 03:11:51;;;;;;;3.37;3.07;;;24.40;48.50;;;;;;5001672;28;20524;-81
2023/08/10 03:14:25;;;;;;;2.90;2.60;;;24.30;48.60;;;;;;5015107;28;20449;-82
2023/08/10 03:16:54;;;;;;;3.23;2.40;;;24.30;48.60;;;;;;5006433;28;20441;-83
2023/08/10 03:19:25;;;;;;;3.10;2.60;;;24.30;48.70;;;;;;5002623;28;20426;-83
2023/08/10 03:21:58;;;;;;;3.20;2.90;;;24.30;48.50;;;;;;5001297;28;20500;-83
2023/08/10 03:24:32;;;;;;;3.03;2.73;;;24.30;48.70;;;;;;5002051;28;20516;-82
2023/08/10 03:27:08;;;;;;;2.40;2.30;;;24.20;48.60;;;;;;5001804;28;20483;-82
2023/08/10 03:29:41;;;;;;;3.30;2.80;;;24.20;48.80;;;;;;5000560;28;20480;-83
2023/08/10 03:32:14;;;;;;;2.50;2.30;;;24.20;48.70;;;;;;5001894;28;20458;-81
2023/08/10 03:34:42;;;;;;;2.30;2.20;;;24.10;48.70;;;;;;5001863;28;20457;-83
2023/08/10 03:37:13;;;;;;;3.03;2.73;;;24.10;48.80;;;;;;5001476;28;20424;-83
2023/08/10 03:39:44;;;;;;;2.80;2.53;;;24.10;48.90;;;;;;5001702;28;20441;-83
2023/08/10 03:42:22;;;;;;;2.73;2.53;;;24.10;48.90;;;;;;5002239;28;20527;-83
2023/08/10 03:44:56;;;;;;;2.60;2.23;;;24.10;48.80;;;;;;4998651;28;20458;-82
2023/08/10 03:47:32;;;;;;;2.67;2.40;;;24.10;48.60;;;;;;5000851;28;20462;-83
2023/08/10 03:50:14;;;;;;;2.50;2.30;;;24.10;48.90;;;;;;5001667;28;20485;-83
2023/08/10 03:52:44;;;;;;;2.53;2.30;;;24.00;48.90;;;;;;5000455;28;20486;-83
2023/08/10 03:55:22;;;;;;;2.47;2.33;;;24.00;48.90;;;;;;5000653;28;20423;-83
2023/08/10 03:58:05;;;;;;;2.27;2.10;;;24.00;49.00;;;;;;5000691;28;20532;-83
2023/08/10 04:00:57;;;;;;;2.60;2.40;;;24.00;49.00;;;;;;4993855;28;20548;-82
2023/08/10 04:03:37;;;;;;;2.97;2.30;;;23.90;48.80;;;;;;4995366;28;20516;-78
2023/08/10 04:06:30;;;;;;;2.63;2.47;;;23.90;48.80;;;;;;4993360;28;20470;-82
2023/08/10 04:09:23;;;;;;;2.70;2.50;;;23.90;49.00;;;;;;5000540;28;20453;-82
2023/08/10 04:23:57;;;;;;;2.40;2.20;;;23.90;49.10;;;;;;4995381;28;20529;-83
2023/08/10 04:26:37;;;;;;;2.37;2.23;;;23.90;49.10;;;;;;5000539;28;20449;-82
2023/08/10 04:29:26;;;;;;;2.10;2.00;;;23.90;49.20;;;;;;5000960;28;20424;-83
2023/08/10 04:32:03;;;;;;;2.40;2.20;;;23.90;49.20;;;;;;5001599;28;20463;-83
2023/08/10 04:34:41;;;;;;;2.43;2.23;;;23.90;48.90;;;;;;5004352;28;20411;-81
2023/08/10 04:37:33;;;;;;;5.53;2.33;;;23.90;49.20;;;;;;5000282;28;20500;-83
2023/08/10 04:40:09;;;;;;;2.33;2.23;;;23.90;49.10;;;;;;4999437;28;20420;-82
2023/08/10 04:42:43;;;;;;;2.20;2.00;;;23.90;49.10;;;;;;4992708;28;20469;-83
2023/08/10 04:45:22;;;;;;;1.77;1.67;;;23.90;49.10;;;;;;5000471;28;20440;-83
2023/08/10 04:47:59;;;;;;;2.50;2.30;;;23.90;48.90;;;;;;4999868;28;20441;-81
2023/08/10 04:50:42;;;;;;;1.87;1.77;;;23.90;49.10;;;;;;4999077;28;20469;-80
2023/08/10 04:53:16;;;;;;;2.70;2.50;;;23.90;49.10;;;;;;4998788;28;20514;-83
2023/08/10 04:56:02;;;;;;;2.30;2.20;;;24.00;49.00;;;;;;4998685;28;20427;-83
2023/08/10 04:58:39;;;;;;;2.40;2.20;;;23.90;49.00;;;;;;4999537;28;20524;-83
2023/08/10 05:01:18;;;;;;;4.30;2.20;;;23.90;49.10;;;;;;4998680;28;20515;-83
2023/08/10 05:03:49;;;;;;;3.43;2.47;;;23.90;49.10;;;;;;4993344;28;20449;-83
2023/08/10 05:06:23;;;;;;;2.27;2.17;;;23.90;49.00;;;;;;5004005;28;20431;-82
2023/08/10 05:09:04;;;;;;;2.43;1.90;;;23.90;49.20;;;;;;4999953;28;20454;-82
2023/08/10 05:11:39;;;;;;;2.50;2.30;;;23.90;49.10;;;;;;5000696;28;20443;-83
2023/08/10 05:14:14;;;;;;;2.33;2.23;;;23.90;49.20;;;;;;5000921;28;20423;-82
2023/08/10 05:16:48;;;;;;;2.13;2.03;;;23.90;49.20;;;;;;4993209;28;20448;-83
2023/08/10 05:19:27;;;;;;;2.40;2.20;;;23.90;49.30;;;;;;4999891;28;20462;-83
2023/08/10 05:22:16;;;;;;;2.70;2.30;;;23.90;49.20;;;;;;4994794;28;20458;-83
2023/08/10 05:24:56;;;;;;;2.23;2.13;;;23.90;49.20;;;;;;4993096;28;20441;-83
2023/08/10 05:27:32;;;;;;;2.50;2.40;;;23.90;49.20;;;;;;4993147;28;20479;-83
2023/08/10 05:30:03;;;;;;;2.50;2.40;;;23.90;49.20;;;;;;4999143;28;20449;-81
2023/08/10 05:32:43;;;;;;;1.93;1.83;;;23.90;49.30;;;;;;4994790;28;20487;-83
2023/08/10 05:35:14;;;;;;;3.10;2.40;;;23.90;49.30;;;;;;5018053;28;20449;-82
2023/08/10 05:37:53;;;;;;;2.13;2.03;;;23.90;49.20;;;;;;5003922;28;20441;-83
2023/08/10 05:40:33;;;;;;;2.33;2.13;;;23.90;49.40;;;;;;5020245;28;20419;-83
2023/08/10 05:43:18;;;;;;;2.37;2.23;;;23.90;49.40;;;;;;5018804;28;20455;-82
2023/08/10 05:45:57;;;;;;;2.27;2.10;;;23.90;49.10;;;;;;5018632;28;20523;-83
2023/08/10 05:48:37;;;;;;;2.40;2.23;;;23.90;49.30;;;;;;5016811;28;20448;-83
2023/08/10 05:51:11;;;;;;;1.90;1.80;;;23.90;49.20;;;;;;4999299;28;20826;-83
2023/08/10 05:53:41;;;;;;;2.30;2.20;;;23.80;49.10;;;;;;5018516;28;20434;-83
2023/08/10 05:56:15;;;;;;;2.40;2.20;;;23.90;49.30;;;;;;5017587;28;20482;-83
2023/08/10 05:58:49;;;;;;;2.27;2.10;;;23.90;49.20;;;;;;5018714;28;20418;-83
2023/08/10 06:01:22;;;;;;;2.00;1.90;;;23.90;49.20;;;;;;5018014;28;20427;-80
2023/08/10 06:03:56;;;;;;;2.03;1.93;;;23.90;49.50;;;;;;4999058;28;20420;-83
2023/08/10 06:06:25;;;;;;;3.60;2.03;;;23.90;49.10;;;;;;4996891;28;20461;-82
2023/08/10 06:08:58;;;;;;;2.37;2.27;;;23.90;49.10;;;;;;5020001;28;20449;-82
2023/08/10 06:11:37;;;;;;;2.30;2.10;;;23.90;49.20;;;;;;5004182;28;20488;-83
2023/08/10 06:14:36;;;;;;;2.67;2.20;;;23.90;49.20;;;;;;5022514;28;20518;-83
2023/08/10 06:17:19;;;;;;;2.23;2.07;;;24.00;49.20;;;;;;5027666;28;20423;-80
2023/08/10 06:19:54;;;;;;;2.13;2.03;;;24.00;49.20;;;;;;5031084;28;21019;-79
2023/08/10 06:22:35;;;;;;;2.70;2.50;;;24.00;49.20;;;;;;5008421;28;20529;-82
2023/08/10 06:25:22;;;;;;;2.57;2.37;;;24.10;49.30;;;;;;5008651;28;20479;-82
2023/08/10 06:28:14;;;;;;;2.30;2.20;;;24.10;49.10;;;;;;5023097;28;20423;-82
2023/08/10 06:30:53;;;;;;;2.00;1.90;;;24.20;49.10;;;;;;5022233;28;20481;-83
2023/08/10 06:33:22;;;;;;;2.20;2.10;;;24.20;48.90;;;;;;5021794;28;20539;-82
2023/08/10 06:35:56;;;;;;;5.60;2.50;;;24.20;49.00;;;;;;5017111;28;20438;-82
2023/08/10 06:38:27;;;;;;;2.20;2.10;;;24.30;48.80;;;;;;5021661;28;20435;-83
2023/08/10 06:40:55;;;;;;;2.00;1.90;;;24.30;48.80;;;;;;5006156;28;20503;-82
2023/08/10 06:43:49;;;;;;;2.67;2.10;;;24.40;48.90;;;;;;5022425;28;20427;-81
2023/08/10 06:46:17;;;;;;;2.40;2.10;;;24.50;48.90;;;;;;5009343;28;20455;-82
2023/08/10 06:48:48;;;;;;;2.10;1.90;;;24.60;48.80;;;;;;4998831;28;20445;-82
2023/08/10 06:51:19;;;;;;;1.90;1.80;;;24.60;48.80;;;;;;5008331;28;20490;-82
2023/08/10 06:53:53;;;;;;;1.63;1.53;;;24.70;48.80;;;;;;5000300;28;20455;-82
2023/08/10 06:56:24;;;;;;;1.80;1.70;;;24.70;48.80;;;;;;4996641;28;20466;-81
2023/08/10 06:58:57;;;;;;;1.97;1.87;;;24.80;48.80;;;;;;4998765;28;20434;-82
2023/08/10 07:01:37;;;;;;;2.90;2.20;;;25.00;48.70;;;;;;4996148;28;20435;-81
2023/08/10 07:04:25;;;;;;;2.60;1.97;;;25.00;48.80;;;;;;4996921;28;20449;-81
2023/08/10 07:07:09;;;;;;;2.33;2.13;;;25.00;48.70;;;;;;4999036;28;20515;-82
2023/08/10 07:09:42;;;;;;;2.27;2.07;;;25.20;48.70;;;;;;5002072;28;20420;-81
2023/08/10 07:12:20;;;;;;;2.33;2.10;;;25.30;48.90;;;;;;5003470;28;20535;-81
2023/08/10 07:14:58;;;;;;;2.30;2.10;;;25.40;48.60;;;;;;5000913;28;20463;-82
2023/08/10 07:17:29;;;;;;;2.10;1.87;;;25.50;48.80;;;;;;4998565;28;20438;-82
2023/08/10 07:19:58;;;;;;;2.60;2.03;;;25.70;48.80;;;;;;4999848;28;20449;-80
2023/08/10 07:22:35;;;;;;;2.20;2.00;;;25.90;48.60;;;;;;4998073;28;20520;-80
2023/08/10 07:25:09;;;;;;;2.30;2.20;;;26.00;48.40;;;;;;5000485;28;20435;-80
2023/08/10 07:27:53;;;;;;;1.90;1.80;;;26.20;48.10;;;;;;5000831;28;20430;-81
2023/08/10 07:30:35;;;;;;;2.30;2.10;;;26.30;47.80;;;;;;4998584;28;20431;-78
2023/08/10 07:33:13;;;;;;;1.70;1.60;;;26.40;47.70;;;;;;4995352;28;20481;-82
2023/08/10 07:35:54;;;;;;;2.20;2.10;;;26.30;47.70;;;;;;5001060;28;20423;-82
2023/08/10 07:38:59;;;;;;;1.93;1.83;;;26.30;48.00;;;;;;4998341;28;20428;-81
2023/08/10 07:41:43;;;;;;;2.23;2.03;;;26.20;48.00;;;;;;4995498;28;20457;-81
2023/08/10 07:44:19;;;;;;;2.40;2.20;;;26.20;48.10;;;;;;4996928;28;20423;-82
2023/08/10 07:46:54;;;;;;;2.37;1.70;;;26.30;48.20;;;;;;4997655;28;20474;-82
2023/08/10 07:49:32;;;;;;;1.90;1.80;;;26.30;48.30;;;;;;4994679;28;20430;-81
2023/08/10 07:52:04;;;;;;;1.40;1.30;;;26.40;48.60;;;;;;4996195;28;20479;-81
2023/08/10 07:54:39;;;;;;;1.70;1.60;;;26.60;48.30;;;;;;4996202;28;20424;-81
2023/08/10 07:57:17;;;;;;;1.80;1.70;;;26.70;48.00;;;;;;4998995;28;20450;-82
2023/08/10 08:00:13;;;;;;;2.03;1.87;;;26.80;48.20;;;;;;4993148;28;20443;-81
2023/08/10 08:02:49;;;;;;;2.60;2.20;;;27.00;48.10;;;;;;4999990;28;20420;-82
2023/08/10 08:05:42;;;;;;;1.87;1.77;;;27.20;48.00;;;;;;5000115;28;20616;-83
2023/08/10 08:08:16;;;;;;;2.10;1.83;;;27.30;47.80;;;;;;5002557;28;20504;-82
2023/08/10 08:10:57;;;;;;;2.03;1.93;;;27.60;47.90;;;;;;4999231;28;20443;-82
2023/08/10 08:13:36;;;;;;;2.00;1.70;;;27.70;47.60;;;;;;4999245;28;20482;-82
2023/08/10 08:16:17;;;;;;;2.40;1.80;;;27.90;47.50;;;;;;5001615;28;20449;-82
2023/08/10 08:19:08;;;;;;;1.90;1.80;;;28.00;47.20;;;;;;4999682;28;20452;-82
2023/08/10 08:21:48;;;;;;;1.57;1.47;;;28.10;47.10;;;;;;4999924;28;20467;-81
2023/08/10 08:24:32;;;;;;;3.20;1.90;;;28.20;47.00;;;;;;4996826;28;20448;-82
2023/08/10 08:27:13;;;;;;;2.90;1.60;;;28.20;47.00;;;;;;4990367;28;20449;-82
2023/08/10 08:32:39;;;;;;;1.53;1.43;;;28.40;47.00;;;;;;4997711;28;20548;-82
2023/08/10 08:35:26;;;;;;;1.73;1.60;;;28.50;46.80;;;;;;4999794;28;20446;-82
2023/08/10 08:41:04;;;;;;;2.60;2.20;;;28.50;46.80;;;;;;5000188;28;20452;-81
2023/08/10 08:43:36;;;;;;;1.77;1.60;;;28.50;46.70;;;;;;5000667;28;20457;-82
2023/08/10 08:46:16;;;;;;;1.63;1.53;;;28.60;46.70;;;;;;4992600;28;20464;-80
2023/08/10 08:48:48;;;;;;;1.73;1.63;;;28.70;46.70;;;;;;4999490;28;20449;-79
2023/08/10 08:54:59;;;;;;;1.60;1.50;;;29.00;46.80;;;;;;5001702;28;20431;-80
2023/08/10 08:57:38;;;;;;;1.53;1.30;;;29.20;46.50;;;;;;4994535;28;20445;-80
2023/08/10 09:00:16;;;;;;;1.80;1.70;;;29.40;46.50;;;;;;4991352;28;20521;-82
2023/08/10 09:02:49;;;;;;;1.90;1.80;;;29.60;46.50;;;;;;4992288;28;20431;-82
2023/08/10 09:05:25;;;;;;;1.50;1.40;;;29.80;46.10;;;;;;4995066;28;20540;-84
2023/08/10 09:08:06;;;;;;;1.80;1.70;;;29.90;46.00;;;;;;4998682;28;20460;-83
2023/08/10 09:10:37;;;;;;;1.70;1.60;;;30.10;46.00;;;;;;5001315;28;20466;-82
2023/08/10 09:13:12;;;;;;;1.90;1.37;;;30.30;45.90;;;;;;5001853;28;20513;-83
2023/08/10 09:15:47;;;;;;;1.87;1.67;;;30.40;45.50;;;;;;5002846;28;20471;-85
2023/08/10 09:18:32;;;;;;;2.27;1.60;;;30.50;45.30;;;;;;4999533;28;20463;-83
2023/08/10 09:21:17;;;;;;;1.60;1.50;;;30.60;45.10;;;;;;4998404;28;20499;-82
2023/08/10 09:23:53;;;;;;;1.63;1.57;;;30.70;45.00;;;;;;5008438;28;20417;-79
2023/08/10 09:26:25;;;;;;;1.60;1.50;;;30.80;44.90;;;;;;5016803;28;20429;-79
2023/08/10 09:28:55;;;;;;;1.57;1.40;;;30.90;44.70;;;;;;5016683;28;20433;-80
2023/08/10 09:31:25;;;;;;;2.03;1.87;;;31.00;44.60;;;;;;5012622;28;20480;-82
2023/08/10 09:33:56;;;;;;;2.07;1.93;;;30.90;44.40;;;;;;5008492;28;20540;-83
2023/08/10 09:36:25;;;;;;;1.87;1.70;;;31.00;44.80;;;;;;5002044;28;20441;-83
2023/08/10 09:38:55;;;;;;;2.13;1.43;;;31.10;45.00;;;;;;5002796;28;20454;-82
2023/08/10 09:41:30;;;;;;;1.87;1.30;;;31.30;45.00;;;;;;5011644;28;20444;-84
2023/08/10 09:44:04;;;;;;;2.60;1.43;;;31.50;44.90;;;;;;5009522;28;20482;-83
2023/08/10 09:46:41;;;;;;;1.83;1.57;;;31.70;44.70;;;;;;5004657;28;20449;-83
2023/08/10 09:49:15;;;;;;;1.57;1.47;;;32.00;44.40;;;;;;5013284;28;20421;-83
2023/08/10 09:51:57;;;;;;;2.17;1.60;;;32.20;44.10;;;;;;5012873;28;20515;-83
2023/08/10 09:54:28;;;;;;;1.50;1.40;;;32.50;44.00;;;;;;5016318;28;20492;-83
2023/08/10 09:57:09;;;;;;;2.17;1.23;;;32.70;43.60;;;;;;5009440;28;20475;-82
2023/08/10 09:59:38;;;;;;;1.60;1.50;;;32.80;43.00;;;;;;5007262;28;20445;-81
2023/08/10 10:02:07;;;;;;;1.60;1.50;;;32.70;43.00;;;;;;5001656;28;20469;-81
2023/08/10 10:04:35;;;;;;;1.73;1.33;;;32.70;43.30;;;;;;5003172;28;20426;-81
2023/08/10 10:07:03;;;;;;;1.23;1.23;;;32.80;43.50;;;;;;5006502;28;20512;-83
2023/08/10 10:09:32;;;;;;;1.60;1.50;;;33.00;43.40;;;;;;5002668;28;20445;-83
2023/08/10 10:12:00;;;;;;;1.70;1.60;;;33.20;43.80;;;;;;5000753;28;20455;-84
2023/08/10 10:14:28;;;;;;;1.40;1.30;;;33.30;42.80;;;;;;5005770;28;20473;-82
2023/08/10 10:16:56;;;;;;;1.43;1.27;;;33.50;43.30;;;;;;5005611;28;20441;-83
2023/08/10 10:19:24;;;;;;;1.93;1.23;;;33.70;42.60;;;;;;5006557;28;20438;-82
2023/08/10 10:21:52;;;;;;;1.43;1.30;;;34.00;42.40;;;;;;5004260;28;20469;-83
2023/08/10 10:24:21;;;;;;;1.27;1.03;;;34.20;42.10;;;;;;5000343;28;20473;-82
2023/08/10 10:27:00;;;;;;;2.10;1.50;;;34.60;41.90;;;;;;5001147;28;20478;-82
2023/08/10 10:29:36;;;;;;;1.70;1.40;;;34.80;41.50;;;;;;5005678;28;20460;-82
2023/08/10 10:32:15;;;;;;;3.70;1.20;;;35.10;41.10;;;;;;5003339;28;20461;-82
2023/08/10 10:34:43;;;;;;;1.77;1.40;;;35.10;40.30;;;;;;5002750;28;20476;-83
2023/08/10 10:37:13;;;;;;;1.40;1.40;;;35.10;40.50;;;;;;5005667;28;20441;-82
2023/08/10 10:39:42;;;;;;;1.67;1.57;;;35.20;40.60;;;;;;5001545;28;20441;-83
2023/08/10 10:42:12;;;;;;;2.60;1.40;;;35.50;40.50;;;;;;5002038;28;20520;-84
2023/08/10 10:44:59;;;;;;;2.43;1.37;;;35.80;40.30;;;;;;5001823;28;20461;-83
2023/08/10 10:47:37;;;;;;;1.47;1.10;;;36.10;40.00;;;;;;5020520;28;20476;-83
2023/08/10 10:50:18;;;;;;;1.17;1.13;;;36.50;39.50;;;;;;5007812;28;20525;-83
2023/08/10 10:52:54;;;;;;;1.53;1.20;;;36.70;38.90;;;;;;5014210;28;20449;-84
2023/08/10 10:55:23;;;;;;;2.07;1.33;;;36.70;38.40;;;;;;4997353;28;20437;-84
2023/08/10 10:57:52;;;;;;;1.20;1.00;;;36.90;38.30;;;;;;5004488;28;20469;-83
2023/08/10 11:00:21;;;;;;;1.20;1.10;;;36.80;37.90;;;;;;5004594;28;20442;-84
2023/08/10 11:02:49;;;;;;;1.10;1.10;;;36.60;37.90;;;;;;5004171;28;20441;-82
2023/08/10 11:05:17;;;;;;;1.40;1.20;;;36.40;38.10;;;;;;5003229;28;20438;-84
2023/08/10 11:07:47;;;;;;;1.20;1.10;;;36.20;38.20;;;;;;5003992;28;20445;-83
2023/08/10 11:10:16;;;;;;;1.20;1.20;;;36.10;38.90;;;;;;5003173;28;20487;-83
2023/08/10 11:12:45;;;;;;;1.40;1.30;;;36.00;38.50;;;;;;5004937;28;20503;-83
2023/08/10 11:15:16;;;;;;;1.10;1.00;;;36.20;38.60;;;;;;5015100;28;20546;-83
2023/08/10 11:17:48;;;;;;;1.60;1.30;;;36.20;38.50;;;;;;5015779;28;20449;-83
2023/08/10 11:20:18;;;;;;;1.40;1.30;;;36.40;38.60;;;;;;5001036;28;20475;-84
2023/08/10 11:22:46;;;;;;;2.80;1.30;;;36.50;38.60;;;;;;5005393;28;20545;-84
2023/08/10 11:25:15;;;;;;;1.60;1.37;;;37.70;37.60;;;;;;4998272;28;20473;-84
2023/08/10 11:27:44;;;;;;;1.63;1.53;;;37.70;36.20;;;;;;5001029;28;20457;-84
2023/08/10 11:30:15;;;;;;;0.97;0.97;;;37.40;36.20;;;;;;5007229;28;20475;-83
2023/08/10 11:32:44;;;;;;;1.60;1.50;;;37.10;36.00;;;;;;5004669;28;20438;-85
2023/08/10 11:35:29;;;;;;;1.40;1.30;;;37.70;35.40;;;;;;5007175;28;20511;-82
2023/08/10 11:38:14;;;;;;;1.57;1.20;;;39.20;35.40;;;;;;4997942;28;20455;-81
2023/08/10 11:41:03;;;;;;;1.70;1.60;;;38.80;34.50;;;;;;4998848;28;20461;-83
2023/08/10 11:49:53;;;;;;;1.73;1.13;;;40.30;33.50;;;;;;5019275;28;20502;-82
2023/08/10 11:52:35;;;;;;;1.20;1.20;;;42.00;31.60;;;;;;5037578;28;20452;-82
2023/08/10 11:55:12;;;;;;;1.00;1.00;;;43.10;30.30;;;;;;5030458;28;20494;-83
2023/08/10 11:57:43;;;;;;;1.47;1.10;;;44.00;29.60;;;;;;5030335;28;20467;-82
2023/08/10 12:00:25;;;;;;;1.03;1.03;;;44.70;29.10;;;;;;5006547;28;20452;-82
2023/08/10 12:02:58;;;;;;;1.08;1.00;;;45.30;28.50;;;;;;4998528;28;20457;-82
2023/08/10 12:05:40;;;;;;;1.00;1.00;;;45.70;28.70;;;;;;4994565;28;20507;-82
2023/08/10 12:08:08;;;;;;;0.70;0.70;;;46.20;27.80;;;;;;4996271;28;20245;-81
2023/08/10 12:10:37;;;;;;;2.05;0.90;;;47.10;26.90;;;;;;4993846;28;20265;-81
2023/08/10 12:13:06;;;;;;;1.10;1.10;;;47.50;26.50;;;;;;4986202;28;20204;-82
2023/08/10 12:15:35;;;;;;;1.00;1.00;;;47.90;26.10;;;;;;4993758;28;20551;-81
2023/08/10 12:18:06;;;;;;;0.90;0.90;;;48.20;25.80;;;;;;5008564;28;20274;-82
2023/08/10 12:20:34;;;;;;;0.88;0.88;;;48.70;25.60;;;;;;4998399;28;20204;-82
2023/08/10 12:23:03;;;;;;;0.93;0.93;;;48.80;25.60;;;;;;5013873;28;20289;-82
2023/08/10 12:25:31;;;;;;;1.10;1.10;;;48.10;25.10;;;;;;5012101;28;20249;-82
2023/08/10 12:27:59;;;;;;;1.17;1.07;;;47.00;26.10;;;;;;5028612;28;20447;-80
2023/08/10 12:30:27;;;;;;;1.00;1.00;;;47.10;25.90;;;;;;5027894;28;20451;-81
2023/08/10 12:32:56;;;;;;;1.10;1.10;;;45.80;26.30;;;;;;5030542;28;20447;-82
2023/08/10 12:35:26;;;;;;;0.90;0.90;;;46.40;26.90;;;;;;5002328;28;20500;-82
2023/08/10 12:37:54;;;;;;;0.87;0.87;;;46.80;26.40;;;;;;5012557;28;20447;-82
2023/08/10 12:40:22;;;;;;;0.90;0.90;;;46.80;26.20;;;;;;5015808;28;20443;-82
2023/08/10 12:42:51;;;;;;;1.20;1.10;;;46.10;26.60;;;;;;5016539;28;20480;-82
2023/08/10 12:45:25;;;;;;;1.33;1.00;;;45.50;27.00;;;;;;5014027;28;20501;-83
2023/08/10 12:47:54;;;;;;;1.10;1.00;;;45.40;27.20;;;;;;5004528;28;20428;-82
2023/08/10 12:50:33;;;;;;;1.63;1.63;;;45.80;26.40;;;;;;5009619;28;20449;-83
2023/08/10 12:53:05;;;;;;;3.63;0.97;;;45.60;26.80;;;;;;5008327;28;20468;-81
2023/08/10 12:56:15;;;;;;;1.13;1.13;;;44.50;27.00;;;;;;5027093;28;20428;-83
2023/08/10 12:59:17;;;;;;;3.27;1.33;;;44.60;28.10;;;;;;5018366;28;20435;-84
2023/08/10 13:01:52;;;;;;;1.73;1.20;;;45.10;27.30;;;;;;5012814;28;20473;-83
2023/08/10 13:04:59;;;;;;;2.00;0.93;;;44.80;27.90;;;;;;5014203;28;20502;-83
2023/08/10 13:08:27;;;;;;;2.17;1.97;;;43.70;22.50;;;;;;5024747;28;20504;-82
2023/08/10 13:14:15;;;;;;;3.30;1.90;;;37.90;25.80;;;;;;4993232;28;20509;-82
2023/08/10 13:16:45;;;;;;;2.80;1.37;;;36.20;26.90;;;;;;5002918;28;20861;-83
2023/08/10 13:19:17;;;;;;;3.83;1.43;;;37.20;27.80;;;;;;5007366;28;20452;-83
2023/08/10 13:22:15;;;;;;;4.73;1.60;;;38.70;26.50;;;;;;4991757;28;20473;-83
2023/08/10 13:25:20;;;;;;;2.50;1.40;;;38.00;25.70;;;;;;5001110;28;20480;-82
2023/08/10 13:28:10;;;;;;;6.80;1.60;;;36.10;27.60;;;;;;5001177;28;20544;-82
2023/08/10 13:30:56;;;;;;;3.20;1.50;;;35.10;28.60;;;;;;4995758;28;20550;-82
2023/08/10 13:33:24;;;;;;;3.50;2.80;;;33.90;28.30;;;;;;5008836;28;20476;-82
2023/08/10 13:39:26;;;;;;;6.30;2.13;;;32.20;31.00;;;;;;4997831;28;20476;-82
2023/08/10 13:42:17;;;;;;;2.33;1.60;;;32.70;31.90;;;;;;4992827;28;20469;-81
2023/08/10 13:47:33;;;;;;;6.17;1.73;;;33.80;31.30;;;;;;4988124;28;20464;-81
2023/08/10 13:50:03;;;;;;;4.10;1.33;;;34.40;29.80;;;;;;5001772;28;20479;-82
2023/08/10 13:52:39;;;;;;;1.70;1.60;;;34.70;28.60;;;;;;5012874;28;20468;-82
2023/08/10 13:55:17;;;;;;;3.20;1.40;;;32.90;30.10;;;;;;5001450;28;20436;-82
2023/08/10 13:58:17;;;;;;;3.40;2.40;;;31.50;32.30;;;;;;4991818;28;20483;-81
2023/08/10 14:00:59;;;;;;;7.60;5.03;;;30.00;33.60;;;;;;4990381;28;20484;-82
2023/08/10 14:03:28;;;;;;;6.83;3.97;;;29.70;35.20;;;;;;5005297;28;20519;-83
2023/08/10 14:05:57;;;;;;;11.67;9.73;;;29.90;34.60;;;;;;5008945;28;20469;-81
2023/08/10 14:08:25;;;;;;;5.27;2.30;;;29.90;36.40;;;;;;5016146;28;20507;-81
2023/08/10 14:10:53;;;;;;;5.00;2.40;;;28.90;36.30;;;;;;5016866;28;20452;-82
2023/08/10 14:13:23;;;;;;;4.73;1.60;;;28.90;37.50;;;;;;5011706;28;20445;-82
2023/08/10 14:15:51;;;;;;;6.90;2.53;;;28.80;37.40;;;;;;5014539;28;20445;-82
2023/08/10 14:18:19;;;;;;;2.50;2.07;;;28.70;39.10;;;;;;5004651;28;20481;-82
2023/08/10 14:20:47;;;;;;;4.23;2.20;;;28.70;39.00;;;;;;4997746;28;20460;-84
2023/08/10 14:23:16;;;;;;;6.40;2.50;;;29.00;39.50;;;;;;5005725;28;20508;-82
2023/08/10 14:25:44;;;;;;;12.03;2.67;;;28.70;38.60;;;;;;4987734;28;20480;-82
2023/08/10 14:28:13;;;;;;;4.63;2.27;;;28.80;38.90;;;;;;4999267;28;20939;-82
2023/08/10 14:56:57;;;;;;;2.73;1.77;;;26.30;44.00;;;;;;4741119;30;20451;-82
2023/08/10 15:00:42;;;;;;;;;;;;;;;;;;;;;
2023/08/10 15:03:46;;;;;;;8.47;1.80;;;27.30;42.90;;;;;;4909970;29;20418;-83
2023/08/10 15:06:50;;;;;;;3.37;1.70;;;27.30;42.90;;;;;;4953301;28;20505;-82